Worthington, Iowa
Current Conditions -  °F | °C
As of 6:15 PM on Wednesday 28 Jan 2015 (Local Time) from KMXO Reporting Station
Clear Clear  
Wind Chill: 25°   Ceiling: Unl
Heat Index: 34°   Visibility: 10mi
Dew Point: 32°   Wind: 12mph
Humidity: 93%   Direction: 130°SE
Pressure: 29.8"   Gusts: 18mph
Location:  42.4°N, 91.12°W
Report Text: KMXO 290015Z AUTO 13010G16KT 10SM CLR 01/00 A2980 RMK AO2
Loading
Personal Weather Stations






























Interactive Weather Map New forecast layout! Learn more

10-Day Weather Forecast

Advertisements
Track Severe Weather on mobile